createdAt,value
2022-11-08T00:00:07.324Z,100600.59
2022-11-08T00:02:35.544Z,100597.94
2022-11-08T00:05:23.179Z,100601.09
2022-11-08T00:08:08.624Z,100597.72
2022-11-08T00:10:54.102Z,100592.44
2022-11-08T00:13:39.786Z,100597.72
2022-11-08T00:16:08.191Z,100604.50
2022-11-08T00:18:36.199Z,100599.41
2022-11-08T00:21:05.607Z,100608.13
2022-11-08T00:23:33.592Z,100600.84
2022-11-08T00:26:01.505Z,100600.75
2022-11-08T00:28:29.427Z,100612.44
2022-11-08T00:30:57.387Z,100606.94
2022-11-08T00:33:25.346Z,100607.88
2022-11-08T00:35:53.266Z,100607.72
2022-11-08T00:38:22.607Z,100594.06
2022-11-08T00:40:50.540Z,100596.66
2022-11-08T00:43:18.599Z,100600.31
2022-11-08T00:45:46.540Z,100600.31
2022-11-08T00:48:14.741Z,100602.09
2022-11-08T00:50:42.864Z,100597.56
2022-11-08T00:53:10.804Z,100601.19
2022-11-08T00:55:40.172Z,100605.75
2022-11-08T00:58:08.172Z,100596.97
2022-11-08T01:00:36.179Z,100600.69
2022-11-08T01:03:22.558Z,100603.31
2022-11-08T01:05:51.897Z,100605.25
2022-11-08T01:08:21.137Z,100598.28
2022-11-08T01:10:52.817Z,100599.22
2022-11-08T01:13:20.947Z,100602.84
2022-11-08T01:15:49.258Z,100596.81
2022-11-08T01:18:19.106Z,100601.44
2022-11-08T01:20:49.616Z,100596.31
2022-11-08T01:23:18.957Z,100605.38
2022-11-08T01:25:48.412Z,100606.34
2022-11-08T01:28:18.670Z,100601.06
2022-11-08T01:30:46.913Z,100605.53
2022-11-08T01:33:15.887Z,100606.34
2022-11-08T01:35:46.360Z,100604.59
2022-11-08T01:38:15.387Z,100596.56
2022-11-08T01:40:45.407Z,100587.88
2022-11-08T01:43:36.757Z,100601.00
2022-11-08T01:46:36.221Z,100587.81
2022-11-08T01:49:34.301Z,100589.66
2022-11-08T01:52:11.579Z,100585.16
2022-11-08T01:54:45.084Z,100594.81
2022-11-08T01:57:17.444Z,100590.56
2022-11-08T01:59:50.860Z,100588.88
2022-11-08T02:02:19.646Z,100588.88
2022-11-08T02:04:48.767Z,100593.47
2022-11-08T02:07:17.825Z,100594.44
2022-11-08T02:09:48.150Z,100594.59
2022-11-08T02:12:18.269Z,100588.50
2022-11-08T02:14:47.577Z,100588.56
2022-11-08T02:17:16.019Z,100582.47
2022-11-08T02:19:46.456Z,100585.91
2022-11-08T02:22:32.417Z,100574.44
2022-11-08T02:25:01.952Z,100573.56
2022-11-08T02:27:29.926Z,100585.25
2022-11-08T02:29:58.198Z,100579.91
2022-11-08T02:32:26.155Z,100578.16
2022-11-08T02:34:57.214Z,100573.78
2022-11-08T02:37:27.128Z,100578.06
2022-11-08T02:39:55.108Z,100578.66
2022-11-08T02:42:24.405Z,100578.72
2022-11-08T02:44:52.361Z,100576.69
2022-11-08T02:47:20.357Z,100573.25
2022-11-08T02:49:48.348Z,100568.59
2022-11-08T02:52:16.267Z,100573.94
2022-11-08T02:54:44.200Z,100559.94
2022-11-08T02:57:12.187Z,100571.28
2022-11-08T02:59:41.476Z,100572.75
2022-11-08T03:02:09.564Z,100566.47
2022-11-08T03:04:37.543Z,100567.06
2022-11-08T03:07:05.561Z,100566.94
2022-11-08T03:09:33.537Z,100566.81
2022-11-08T03:12:01.482Z,100570.19
2022-11-08T03:14:29.505Z,100568.44
2022-11-08T03:16:58.850Z,100560.22
2022-11-08T03:19:26.793Z,100566.50
2022-11-08T03:21:54.732Z,100573.72
2022-11-08T03:24:22.642Z,100572.78
2022-11-08T03:26:50.663Z,100569.03
2022-11-08T03:29:18.600Z,100560.22
2022-11-08T03:31:46.658Z,100553.44
2022-11-08T03:34:16.060Z,100565.75
2022-11-08T03:36:44.075Z,100566.88
2022-11-08T03:39:12.171Z,100566.22
2022-11-08T03:41:40.168Z,100565.47
2022-11-08T03:44:08.112Z,100570.22
2022-11-08T03:46:36.119Z,100569.25
2022-11-08T03:49:04.142Z,100565.09
2022-11-08T03:51:33.495Z,100564.50
2022-11-08T03:54:01.416Z,100564.63
2022-11-08T03:56:29.382Z,100564.69
2022-11-08T03:58:57.288Z,100562.13
2022-11-08T04:01:25.428Z,100569.34
2022-11-08T04:03:53.492Z,100561.38
2022-11-08T04:06:21.457Z,100567.66
2022-11-08T04:08:50.928Z,100567.59
2022-11-08T04:11:36.572Z,100564.25
2022-11-08T04:14:22.096Z,100575.09
2022-11-08T04:16:50.171Z,100571.56
2022-11-08T04:19:35.701Z,100567.22
2022-11-08T04:22:04.391Z,100570.97
2022-11-08T04:24:33.747Z,100561.25
2022-11-08T04:27:02.696Z,100565.72
2022-11-08T04:29:31.226Z,100554.28
2022-11-08T04:31:59.188Z,100557.03
2022-11-08T04:34:27.126Z,100558.81
2022-11-08T04:36:55.828Z,100559.88
2022-11-08T04:39:23.792Z,100550.19
2022-11-08T04:41:56.453Z,100561.94
2022-11-08T04:44:27.301Z,100554.81
2022-11-08T04:46:55.253Z,100564.59
2022-11-08T04:49:23.178Z,100555.00
2022-11-08T04:51:51.304Z,100555.31
2022-11-08T04:54:19.260Z,100552.41
2022-11-08T04:56:47.193Z,100563.47
2022-11-08T04:59:16.595Z,100554.50
2022-11-08T05:01:44.691Z,100559.03
2022-11-08T05:04:12.723Z,100567.13
2022-11-08T05:06:40.789Z,100560.09
2022-11-08T05:09:08.705Z,100565.41
2022-11-08T05:11:36.629Z,100549.75
2022-11-08T05:14:04.581Z,100559.28
2022-11-08T05:16:34.067Z,100557.66
2022-11-08T05:19:02.229Z,100555.19
2022-11-08T05:21:47.557Z,100557.97
2022-11-08T05:24:17.940Z,100548.31
2022-11-08T05:26:48.091Z,100542.34
2022-11-08T05:29:17.924Z,100546.78
2022-11-08T05:31:47.279Z,100552.03
2022-11-08T05:34:15.220Z,100556.38
2022-11-08T05:36:43.222Z,100555.69
2022-11-08T05:39:11.219Z,100552.03
2022-11-08T05:41:39.172Z,100550.28
2022-11-08T05:44:07.201Z,100548.59
2022-11-08T05:46:35.276Z,100556.72
2022-11-08T05:49:04.636Z,100540.81
2022-11-08T05:51:32.924Z,100540.88
2022-11-08T05:54:00.908Z,100537.38
2022-11-08T05:56:28.930Z,100529.50
2022-11-08T05:58:57.038Z,100535.38
2022-11-08T06:01:25.170Z,100539.19
2022-11-08T06:03:53.248Z,100534.72
2022-11-08T06:06:23.229Z,100540.22
2022-11-08T06:08:52.974Z,100539.25
2022-11-08T06:11:24.606Z,100541.91
2022-11-08T06:13:53.971Z,100533.19
2022-11-08T06:16:23.913Z,100544.00
2022-11-08T06:18:52.189Z,100543.13
2022-11-08T06:21:22.992Z,100541.25
2022-11-08T06:23:53.470Z,100529.78
2022-11-08T06:26:21.585Z,100541.38
2022-11-08T06:28:49.629Z,100537.00
2022-11-08T06:31:17.663Z,100536.91
2022-11-08T06:33:46.400Z,100532.69
2022-11-08T06:36:14.569Z,100524.94
2022-11-08T06:38:43.886Z,100533.91
2022-11-08T06:41:19.740Z,100529.69
2022-11-08T06:43:48.121Z,100521.94
2022-11-08T06:46:16.697Z,100522.22
2022-11-08T06:48:44.950Z,100521.56
2022-11-08T06:51:12.919Z,100520.75
2022-11-08T06:53:40.862Z,100525.06
2022-11-08T06:56:10.891Z,100525.88
2022-11-08T06:58:38.936Z,100529.34
2022-11-08T07:01:08.297Z,100527.56
2022-11-08T07:03:36.685Z,100532.00
2022-11-08T07:06:05.656Z,100523.09
2022-11-08T07:08:34.053Z,100518.78
2022-11-08T07:11:02.575Z,100527.75
2022-11-08T07:13:31.980Z,100525.13
2022-11-08T07:16:00.902Z,100523.44
2022-11-08T07:18:29.519Z,100515.78
2022-11-08T07:21:01.340Z,100528.09
2022-11-08T07:23:29.752Z,100532.63
2022-11-08T07:25:57.841Z,100521.06
2022-11-08T07:28:25.813Z,100525.47
2022-11-08T07:30:59.089Z,100521.13
2022-11-08T07:33:27.392Z,100528.25
2022-11-08T07:35:55.548Z,100529.97
2022-11-08T07:38:23.993Z,100521.91
2022-11-08T07:40:52.011Z,100526.25
2022-11-08T07:43:19.952Z,100529.75
2022-11-08T07:45:48.608Z,100519.72
2022-11-08T07:48:17.917Z,100528.44
2022-11-08T07:50:47.650Z,100525.53
2022-11-08T07:53:16.062Z,100525.34
2022-11-08T07:55:46.934Z,100520.63
2022-11-08T07:58:15.943Z,100524.03
2022-11-08T08:00:45.389Z,100519.34
2022-11-08T08:03:16.204Z,100517.22
2022-11-08T08:05:46.774Z,100514.38
2022-11-08T08:08:15.256Z,100514.25
2022-11-08T08:10:43.299Z,100516.72
2022-11-08T08:13:11.310Z,100509.41
2022-11-08T08:15:39.483Z,100510.16
2022-11-08T08:18:09.284Z,100514.47
2022-11-08T08:20:38.843Z,100507.94
2022-11-08T08:23:08.296Z,100511.25
2022-11-08T08:25:36.291Z,100505.59
2022-11-08T08:28:05.756Z,100517.72
2022-11-08T08:30:34.372Z,100515.69
2022-11-08T08:33:26.920Z,100514.59
2022-11-08T08:35:53.867Z,100509.91
2022-11-08T08:38:23.219Z,100512.31
2022-11-08T08:40:52.286Z,100509.56
2022-11-08T08:43:21.094Z,100512.88
2022-11-08T08:45:49.910Z,100508.31
2022-11-08T08:48:18.131Z,100508.16
2022-11-08T08:50:46.138Z,100499.88
2022-11-08T08:53:14.574Z,100502.28
2022-11-08T08:55:43.930Z,100490.66
2022-11-08T08:58:12.204Z,100493.00
2022-11-08T09:03:28.704Z,100473.97
2022-11-08T09:05:58.383Z,100480.03
2022-11-08T09:08:26.581Z,100477.22
2022-11-08T09:10:57.463Z,100471.72
2022-11-08T09:13:27.236Z,100461.91
2022-11-08T09:15:55.907Z,100468.81
2022-11-08T09:18:24.085Z,100467.78
2022-11-08T09:20:52.131Z,100459.72
2022-11-08T09:23:20.390Z,100456.91
2022-11-08T09:25:48.477Z,100453.16
2022-11-08T09:28:18.808Z,100456.56
2022-11-08T09:30:46.851Z,100447.53
2022-11-08T09:33:15.171Z,100452.81
2022-11-08T09:35:43.344Z,100447.16
2022-11-08T09:38:11.271Z,100454.97
2022-11-08T09:40:42.924Z,100442.47
2022-11-08T09:43:40.035Z,100451.22
2022-11-08T09:46:11.551Z,100450.94
2022-11-08T09:48:43.102Z,100453.44
2022-11-08T09:51:15.339Z,100446.16
2022-11-08T09:53:50.447Z,100444.94
2022-11-08T09:56:26.122Z,100437.56
2022-11-08T09:59:02.088Z,100438.34
2022-11-08T10:01:33.096Z,100430.22
2022-11-08T10:04:04.088Z,100430.91
2022-11-08T10:06:50.768Z,100437.94
2022-11-08T10:09:29.788Z,100433.50
2022-11-08T10:12:10.569Z,100432.50
2022-11-08T10:14:54.376Z,100429.16
2022-11-08T10:17:51.867Z,100416.19
2022-11-08T10:20:30.241Z,100415.31
2022-11-08T10:23:09.273Z,100414.28
2022-11-08T10:25:45.346Z,100407.22
2022-11-08T10:28:17.263Z,100394.97
2022-11-08T10:30:50.068Z,100385.44
2022-11-08T10:33:21.730Z,100386.50
2022-11-08T10:36:02.190Z,100375.78
2022-11-08T10:38:37.999Z,100365.63
2022-11-08T10:41:12.027Z,100363.03
2022-11-08T10:43:45.957Z,100361.16
2022-11-08T10:46:32.889Z,100361.72
2022-11-08T10:49:12.003Z,100359.34
2022-11-08T10:51:40.132Z,100355.66
2022-11-08T10:54:08.449Z,100338.41
2022-11-08T10:56:56.186Z,100347.31
2022-11-08T10:59:32.185Z,100335.97
2022-11-08T11:02:02.102Z,100339.84
2022-11-08T11:04:32.193Z,100338.03
2022-11-08T11:07:02.522Z,100329.97
2022-11-08T11:09:30.661Z,100326.94
2022-11-08T11:11:59.785Z,100320.63
2022-11-08T11:14:27.807Z,100321.25
2022-11-08T11:16:58.725Z,100328.28
2022-11-08T11:19:29.196Z,100322.78
2022-11-08T11:21:59.356Z,100319.94
2022-11-08T11:24:27.338Z,100313.56
2022-11-08T11:27:05.505Z,100313.06
2022-11-08T11:29:35.175Z,100313.47
2022-11-08T11:32:22.636Z,100314.09
2022-11-08T11:34:57.228Z,100307.78
2022-11-08T11:37:41.068Z,100309.28
2022-11-08T11:40:17.343Z,100320.72
2022-11-08T11:42:55.397Z,100316.78
2022-11-08T11:45:30.269Z,100313.75
2022-11-08T11:47:59.937Z,100317.00
2022-11-08T11:50:40.274Z,100307.97
2022-11-08T11:53:15.316Z,100300.47
2022-11-08T11:56:05.076Z,100298.16
2022-11-08T11:58:53.538Z,100292.72
2022-11-08T12:01:33.650Z,100277.47
2022-11-08T12:04:31.472Z,100271.69
2022-11-08T12:07:05.911Z,100257.59
2022-11-08T12:09:49.424Z,100254.56
2022-11-08T12:12:32.939Z,100257.63
2022-11-08T12:15:06.214Z,100245.31
2022-11-08T12:18:07.893Z,100240.31
2022-11-08T12:20:46.967Z,100236.41
2022-11-08T12:23:44.565Z,100232.69
2022-11-08T12:26:20.829Z,100245.84
2022-11-08T12:29:09.011Z,100242.44
2022-11-08T12:31:46.539Z,100240.47
2022-11-08T12:34:21.165Z,100239.84
2022-11-08T12:37:01.007Z,100234.75
2022-11-08T12:39:36.552Z,100239.34
2022-11-08T12:42:22.849Z,100234.75
2022-11-08T12:45:16.623Z,100239.19
2022-11-08T12:47:52.268Z,100226.53
2022-11-08T12:50:30.130Z,100229.38
2022-11-08T12:53:32.810Z,100227.13
2022-11-08T12:56:04.865Z,100211.53
2022-11-08T12:58:37.383Z,100232.81
2022-11-08T13:01:11.220Z,100209.16
2022-11-08T13:04:06.018Z,100203.19
2022-11-08T13:06:44.401Z,100218.50
2022-11-08T13:09:22.803Z,100204.22
2022-11-08T13:11:58.861Z,100217.56
2022-11-08T13:14:27.439Z,100217.56
2022-11-08T13:17:22.983Z,100205.97
2022-11-08T13:20:04.719Z,100212.19
2022-11-08T13:22:58.642Z,100215.06
2022-11-08T13:25:35.640Z,100204.03
2022-11-08T13:28:53.115Z,100203.97
2022-11-08T13:31:28.495Z,100194.66
2022-11-08T13:34:21.243Z,100193.34
2022-11-08T13:37:01.197Z,100188.84
2022-11-08T13:40:00.324Z,100195.84
2022-11-08T13:42:41.268Z,100185.63
2022-11-08T13:45:33.198Z,100178.13
2022-11-08T13:48:03.666Z,100187.31
2022-11-08T13:50:54.514Z,100180.44
2022-11-08T13:53:47.800Z,100181.66
2022-11-08T13:56:25.251Z,100169.16
2022-11-08T13:58:53.860Z,100176.47
2022-11-08T14:02:03.411Z,100168.56
2022-11-08T14:04:33.657Z,100174.03
2022-11-08T14:07:12.089Z,100168.66
2022-11-08T14:09:48.419Z,100174.69
2022-11-08T14:12:24.109Z,100172.38
2022-11-08T14:15:05.104Z,100178.06
2022-11-08T14:17:44.731Z,100172.78
2022-11-08T14:20:28.146Z,100186.41
2022-11-08T14:22:57.841Z,100184.06
2022-11-08T14:25:30.039Z,100186.94
2022-11-08T14:27:58.596Z,100174.56
2022-11-08T14:30:27.176Z,100183.03
2022-11-08T14:33:17.436Z,100177.06
2022-11-08T14:35:54.578Z,100159.38
2022-11-08T14:38:22.970Z,100160.59
2022-11-08T14:40:53.737Z,100155.97
2022-11-08T14:43:23.280Z,100163.81
2022-11-08T14:45:52.409Z,100174.47
2022-11-08T14:48:24.399Z,100164.78
2022-11-08T14:50:59.403Z,100163.66
2022-11-08T14:53:29.304Z,100162.09
2022-11-08T14:56:03.404Z,100166.00
2022-11-08T14:58:31.874Z,100169.03
2022-11-08T15:01:02.576Z,100173.28
2022-11-08T15:03:34.071Z,100166.34
2022-11-08T15:06:03.999Z,100152.91
2022-11-08T15:08:35.072Z,100150.41
2022-11-08T15:11:05.434Z,100147.66
2022-11-08T15:13:41.223Z,100139.50
2022-11-08T15:16:10.351Z,100136.09
2022-11-08T15:18:41.247Z,100135.22
2022-11-08T15:21:23.958Z,100126.31
2022-11-08T15:23:54.287Z,100127.34
2022-11-08T15:26:25.698Z,100137.22
2022-11-08T15:29:02.056Z,100130.31
2022-11-08T15:31:33.388Z,100140.25
2022-11-08T15:34:03.170Z,100145.88
2022-11-08T15:36:34.657Z,100134.09
2022-11-08T15:39:03.949Z,100139.38
2022-11-08T15:41:39.284Z,100133.06
2022-11-08T15:44:15.441Z,100130.47
2022-11-08T15:46:43.955Z,100135.91
2022-11-08T15:49:19.259Z,100131.88
2022-11-08T15:51:47.896Z,100131.91
2022-11-08T15:54:16.111Z,100128.47
2022-11-08T15:56:45.089Z,100124.22
2022-11-08T15:59:21.025Z,100127.34
2022-11-08T16:01:56.164Z,100122.16
2022-11-08T16:04:25.906Z,100129.41
2022-11-08T16:06:53.944Z,100123.97
2022-11-08T16:09:21.966Z,100104.41
2022-11-08T16:11:50.670Z,100121.38
2022-11-08T16:14:21.435Z,100123.88
2022-11-08T16:16:49.988Z,100126.50
2022-11-08T16:19:20.405Z,100128.38
2022-11-08T16:21:49.888Z,100135.84
2022-11-08T16:24:18.118Z,100129.50
2022-11-08T16:26:46.889Z,100122.34
2022-11-08T16:29:21.228Z,100110.31
2022-11-08T16:31:49.658Z,100103.47
2022-11-08T16:34:17.876Z,100111.44
2022-11-08T16:36:47.676Z,100109.44
2022-11-08T16:39:18.760Z,100100.63
2022-11-08T16:41:47.009Z,100088.22
2022-11-08T16:44:15.069Z,100081.13
2022-11-08T16:46:43.238Z,100098.28
2022-11-08T16:49:20.675Z,100096.28
2022-11-08T16:51:49.027Z,100102.69
2022-11-08T16:54:23.910Z,100108.56
2022-11-08T16:57:03.338Z,100131.78
2022-11-08T16:59:40.176Z,100122.56
2022-11-08T17:02:19.903Z,100129.41
2022-11-08T17:04:48.000Z,100122.66
2022-11-08T17:07:15.996Z,100129.09
2022-11-08T17:09:45.346Z,100123.56
2022-11-08T17:12:13.457Z,100132.53
2022-11-08T17:14:41.402Z,100138.75
2022-11-08T17:17:10.864Z,100133.47
2022-11-08T17:19:38.879Z,100135.03
2022-11-08T17:22:07.163Z,100133.22
2022-11-08T17:24:35.121Z,100136.97
2022-11-08T17:27:04.464Z,100145.28
2022-11-08T17:29:32.608Z,100141.63
2022-11-08T17:32:00.603Z,100149.66
2022-11-08T17:34:29.521Z,100141.22
2022-11-08T17:36:57.488Z,100145.53
2022-11-08T17:39:25.531Z,100146.50
2022-11-08T17:41:53.511Z,100147.34
2022-11-08T17:44:22.874Z,100137.91
2022-11-08T17:46:50.896Z,100135.88
2022-11-08T17:49:19.104Z,100141.38
2022-11-08T17:51:47.164Z,100142.09
2022-11-08T17:54:15.127Z,100136.38
2022-11-08T17:56:43.230Z,100143.66
2022-11-08T17:59:11.396Z,100137.16
2022-11-08T18:01:40.926Z,100148.66
2022-11-08T18:04:09.073Z,100152.16
2022-11-08T18:06:38.825Z,100144.94
2022-11-08T18:09:07.221Z,100147.91
2022-11-08T18:11:35.359Z,100148.47
2022-11-08T18:14:04.273Z,100148.66
2022-11-08T18:16:34.155Z,100152.16
2022-11-08T18:19:03.523Z,100162.88
2022-11-08T18:21:31.835Z,100148.47
2022-11-08T18:24:00.022Z,100152.16
2022-11-08T18:26:28.721Z,100159.22
2022-11-08T18:28:57.582Z,100146.59
2022-11-08T18:31:26.158Z,100157.50
2022-11-08T18:33:54.154Z,100154.97
2022-11-08T18:36:24.824Z,100147.72
2022-11-08T18:38:53.317Z,100146.16
2022-11-08T18:41:25.099Z,100142.78
2022-11-08T18:43:53.481Z,100138.97
2022-11-08T18:46:23.937Z,100151.09
2022-11-08T18:48:53.031Z,100145.53
2022-11-08T18:51:23.618Z,100145.06
2022-11-08T18:53:52.976Z,100140.25
2022-11-08T18:56:21.692Z,100129.84
2022-11-08T18:58:49.877Z,100143.38
2022-11-08T19:01:18.209Z,100137.38
2022-11-08T19:03:46.298Z,100134.59
2022-11-08T19:06:14.275Z,100131.91
2022-11-08T19:08:43.624Z,100139.97
2022-11-08T19:11:12.976Z,100134.59
2022-11-08T19:13:42.322Z,100136.69
2022-11-08T19:16:14.351Z,100132.19
2022-11-08T19:18:43.873Z,100140.84
2022-11-08T19:21:14.644Z,100139.81
2022-11-08T19:23:45.809Z,100146.31
2022-11-08T19:26:16.110Z,100157.50
2022-11-08T19:28:46.071Z,100148.66
2022-11-08T19:31:15.188Z,100153.50
2022-11-08T19:33:43.249Z,100151.81
2022-11-08T19:36:14.977Z,100145.72
2022-11-08T19:38:44.821Z,100155.50
2022-11-08T19:41:14.511Z,100148.94
2022-11-08T19:43:44.332Z,100148.84
2022-11-08T19:46:14.000Z,100137.06
2022-11-08T19:48:44.029Z,100146.78
2022-11-08T19:51:14.707Z,100133.59
2022-11-08T19:53:44.689Z,100131.19
2022-11-08T19:56:15.327Z,100147.38
2022-11-08T19:58:44.307Z,100142.00
2022-11-08T20:01:15.219Z,100148.94
2022-11-08T20:03:43.743Z,100144.78
2022-11-08T20:06:12.085Z,100153.50
2022-11-08T20:08:40.611Z,100160.13
2022-11-08T20:11:14.128Z,100166.44
2022-11-08T20:13:42.285Z,100171.72
2022-11-08T20:16:11.845Z,100163.75
2022-11-08T20:18:40.234Z,100167.53
2022-11-08T20:21:09.717Z,100170.06
2022-11-08T20:23:38.699Z,100167.59
2022-11-08T20:26:08.688Z,100171.16
2022-11-08T20:28:41.827Z,100163.44
2022-11-08T20:31:13.900Z,100167.06
2022-11-08T20:33:42.421Z,100175.38
2022-11-08T20:36:12.915Z,100165.69
2022-11-08T20:38:41.521Z,100174.53
2022-11-08T20:41:12.245Z,100175.66
2022-11-08T20:43:42.250Z,100178.06
2022-11-08T20:46:12.160Z,100188.81
2022-11-08T20:48:42.765Z,100174.72
2022-11-08T20:51:13.085Z,100177.53
2022-11-08T20:53:41.613Z,100181.09
2022-11-08T20:56:12.170Z,100166.22
2022-11-08T20:58:43.114Z,100187.84
2022-11-08T21:01:13.611Z,100180.47
2022-11-08T21:03:42.751Z,100180.56
2022-11-08T21:06:12.497Z,100176.09
2022-11-08T21:11:30.098Z,100170.94
2022-11-08T21:14:02.304Z,100169.16
2022-11-08T21:16:38.206Z,100174.25
2022-11-08T21:19:10.650Z,100173.31
2022-11-08T21:21:38.619Z,100148.53
2022-11-08T21:24:07.486Z,100175.03
2022-11-08T21:26:36.769Z,100177.13
2022-11-08T21:29:07.189Z,100174.44
2022-11-08T21:31:35.435Z,100169.84
2022-11-08T21:34:03.449Z,100174.69
2022-11-08T21:36:31.416Z,100177.13
2022-11-08T21:38:59.372Z,100175.19
2022-11-08T21:41:27.450Z,100160.00
2022-11-08T21:43:55.349Z,100165.50
2022-11-08T21:46:26.217Z,100182.13
2022-11-08T21:48:55.885Z,100170.78
2022-11-08T21:51:24.101Z,100164.72
2022-11-08T21:53:54.755Z,100167.84
2022-11-08T21:56:24.856Z,100172.44
2022-11-08T21:58:53.376Z,100183.78
2022-11-08T22:01:25.407Z,100185.00
2022-11-08T22:03:58.324Z,100172.16
2022-11-08T22:06:26.539Z,100183.69
2022-11-08T22:08:54.860Z,100166.75
2022-11-08T22:11:23.044Z,100177.38
2022-11-08T22:13:51.138Z,100182.59
2022-11-08T22:16:19.087Z,100179.81
2022-11-08T22:21:40.295Z,100184.63
2022-11-08T22:24:10.655Z,100180.06
2022-11-08T22:26:38.720Z,100182.91
2022-11-08T22:29:07.536Z,100185.34
2022-11-08T22:31:35.702Z,100185.53
2022-11-08T22:34:04.941Z,100181.69
2022-11-08T22:36:33.237Z,100177.72
2022-11-08T22:39:02.802Z,100182.91
2022-11-08T22:41:31.226Z,100171.13
2022-11-08T22:43:59.555Z,100187.41
2022-11-08T22:46:27.555Z,100175.72
2022-11-08T22:48:55.822Z,100163.63
2022-11-08T22:51:23.796Z,100173.72
2022-11-08T22:53:51.816Z,100179.19
2022-11-08T22:56:21.112Z,100163.19
2022-11-08T22:58:49.183Z,100176.09
2022-11-08T23:01:17.417Z,100176.41
2022-11-08T23:03:46.738Z,100154.34
2022-11-08T23:06:15.367Z,100154.16
2022-11-08T23:08:43.633Z,100150.53
2022-11-08T23:11:29.167Z,100170.44
2022-11-08T23:14:16.330Z,100173.81
2022-11-08T23:16:46.484Z,100166.28
2022-11-08T23:19:34.657Z,100173.50
2022-11-08T23:22:21.338Z,100162.78
2022-11-08T23:24:49.310Z,100159.50
2022-11-08T23:27:36.322Z,100177.66
2022-11-08T23:30:36.489Z,100140.56
2022-11-08T23:33:05.714Z,100136.88
2022-11-08T23:35:33.637Z,100176.91
2022-11-08T23:38:01.642Z,100176.13
2022-11-08T23:40:47.291Z,100170.75
2022-11-08T23:43:34.276Z,100155.34
2022-11-08T23:46:07.840Z,100176.28
2022-11-08T23:48:35.946Z,100186.16
2022-11-08T23:51:04.294Z,100177.38
2022-11-08T23:53:34.358Z,100186.75
2022-11-08T23:56:02.287Z,100183.47
2022-11-08T23:58:30.469Z,100188.28
